Pagrindinis puslapis
METAR-TAF:

METAR-TAF

Oro uostai :

Beaumont-Port Arthur, Teksasas, Jungtinės Amerikos Valstijos

platuma: 29-57-03N, ilguma: 094-01-15W, Aukštis: 5 m

Dabartinis oras

Ataskaita buvo paskelbta 18 minutes, ne 05:53 UTC
Ramus vėjas
Temperatūra 19°C
Drėgmė 94%
Slėgis 1013 hPa
Matomumas: 16.1 km
Giedras dangus

METAR: KBPT 270553Z AUTO 00000KT 10SM CLR 19/18 A2990 RMK AO2 SLP124 60092 T01890183 10267 20183 403000183 50006

Laikas: 01:11 (06:11 UTC)

Prognozė

Ataskaita buvo paskelbta 51 minutes, ne 05:20 UTC
Prognozė galioja nuo 27 metu 06 UTC su 28 metu 06 UTC
Vėjas 3 kt nuo kintamojo kryptimis
Matomumas: 10 km
Mažai debesys ne aukštis 5000 ft
Nuo 27 metu 1500 UTC
Vėjas 6 kt iš Vakarų
Matomumas: 10 km
Mažai debesys ne aukštis 4000 ft
Išsisklaidę debesys ne aukštis 10000 ft
Liūtis kaimynystėje
Nuo 28 metu 0100 UTC
Vėjas 3 kt iš Pietvakarių
Matomumas: 10 km
Išsisklaidę debesys ne aukštis 4000 ft

TAF: KBPT 270520Z 2706/2806 VRB03KT P6SM FEW050 FM271500 28006KT P6SM VCSH FEW040 SCT100 FM280100 23003KT P6SM SCT040

Orai ataskaitas ir orų prognozės (METAR, TAF).

turimą stotys yra geltonos ir raudonos taškus žemėlapyje.

Perkelti pele per norėdami pamatyti stoties vardą.

Tada spustelėkite, norėdami matyti oro stebėjimo ir prognozės.

Norėdami pakeisti žemėlapį: spustelėkite ant žalios mygtukų su juodo kryžiaus žemyn,; žalią mygtuką su brūkšneliu, jei norite nutolinti; arba žalių rodyklių gretimoms žemėlapius.


METAR-TAF: